createdAt,value
2022-09-17T00:01:34.843Z,11.15
2022-09-17T00:04:05.438Z,11.13
2022-09-17T00:06:36.666Z,11.12
2022-09-17T00:09:07.256Z,11.11
2022-09-17T00:11:41.247Z,11.08
2022-09-17T00:14:14.106Z,11.07
2022-09-17T00:16:43.991Z,11.06
2022-09-17T00:19:15.692Z,11.06
2022-09-17T00:21:45.607Z,11.05
2022-09-17T00:24:15.831Z,11.04
2022-09-17T00:26:44.272Z,11.05
2022-09-17T00:29:12.572Z,11.05
2022-09-17T00:31:41.659Z,11.06
2022-09-17T00:34:12.140Z,11.08
2022-09-17T00:36:41.156Z,11.08
2022-09-17T00:39:12.810Z,11.09
2022-09-17T00:41:41.111Z,11.10
2022-09-17T00:44:42.782Z,11.09
2022-09-17T00:47:16.656Z,11.08
2022-09-17T00:49:45.609Z,11.06
2022-09-17T00:52:16.993Z,11.04
2022-09-17T00:54:53.945Z,11.03
2022-09-17T00:57:22.355Z,11.05
2022-09-17T00:59:50.739Z,11.05
2022-09-17T01:02:19.992Z,11.04
2022-09-17T01:04:48.320Z,11.01
2022-09-17T01:07:29.395Z,11.00
2022-09-17T01:10:04.249Z,10.98
2022-09-17T01:12:42.497Z,10.96
2022-09-17T01:15:23.013Z,10.93
2022-09-17T01:18:03.185Z,10.90
2022-09-17T01:21:04.542Z,10.88
2022-09-17T01:23:58.892Z,10.87
2022-09-17T01:26:54.705Z,10.87
2022-09-17T01:29:36.585Z,10.85
2022-09-17T01:32:10.937Z,10.84
2022-09-17T01:34:46.981Z,10.84
2022-09-17T01:37:19.949Z,10.83
2022-09-17T01:39:54.093Z,10.84
2022-09-17T01:42:26.959Z,10.83
2022-09-17T01:45:02.632Z,10.81
2022-09-17T01:47:35.587Z,10.78
2022-09-17T01:50:09.341Z,10.78
2022-09-17T01:52:41.638Z,10.76
2022-09-17T01:55:14.955Z,10.75
2022-09-17T01:57:49.278Z,10.73
2022-09-17T02:00:18.593Z,10.72
2022-09-17T02:02:53.103Z,10.73
2022-09-17T02:05:25.802Z,10.71
2022-09-17T02:07:58.355Z,10.72
2022-09-17T02:10:32.327Z,10.71
2022-09-17T02:13:04.551Z,10.69
2022-09-17T02:15:38.247Z,10.70
2022-09-17T02:18:11.684Z,10.70
2022-09-17T02:20:45.859Z,10.71
2022-09-17T02:23:17.699Z,10.70
2022-09-17T02:25:51.527Z,10.69
2022-09-17T02:28:26.968Z,10.70
2022-09-17T02:30:55.617Z,10.72
2022-09-17T02:33:26.126Z,10.72
2022-09-17T02:35:54.547Z,10.71
2022-09-17T02:38:25.531Z,10.72
2022-09-17T02:41:03.279Z,10.73
2022-09-17T02:43:39.593Z,10.74
2022-09-17T02:46:25.598Z,10.73
2022-09-17T02:49:22.669Z,10.73
2022-09-17T02:52:01.745Z,10.72
2022-09-17T02:54:36.554Z,10.72
2022-09-17T02:57:14.569Z,10.71
2022-09-17T02:59:53.107Z,10.73
2022-09-17T03:02:26.271Z,10.72
2022-09-17T03:04:57.063Z,10.71
2022-09-17T03:07:27.171Z,10.70
2022-09-17T03:09:55.522Z,10.71
2022-09-17T03:12:24.463Z,10.68
2022-09-17T03:14:52.738Z,10.67
2022-09-17T03:17:20.998Z,10.67
2022-09-17T03:19:49.332Z,10.67
2022-09-17T03:22:19.029Z,10.65
2022-09-17T03:24:47.275Z,10.65
2022-09-17T03:27:15.729Z,10.66
2022-09-17T03:29:44.440Z,10.66
2022-09-17T03:32:12.694Z,10.65
2022-09-17T03:34:40.955Z,10.67
2022-09-17T03:37:09.199Z,10.68
2022-09-17T03:39:38.876Z,10.66
2022-09-17T03:42:07.565Z,10.67
2022-09-17T03:44:35.815Z,10.67
2022-09-17T03:47:04.154Z,10.67
2022-09-17T03:49:32.421Z,10.68
2022-09-17T03:52:00.707Z,10.69
2022-09-17T03:54:28.973Z,10.69
2022-09-17T03:56:58.629Z,10.72
2022-09-17T03:59:27.264Z,10.72
2022-09-17T04:01:55.630Z,10.72
2022-09-17T04:04:24.084Z,10.73
2022-09-17T04:06:52.321Z,10.76
2022-09-17T04:09:20.595Z,10.76
2022-09-17T04:11:48.826Z,10.76
2022-09-17T04:14:18.494Z,10.77
2022-09-17T04:16:46.774Z,10.80
2022-09-17T04:19:15.062Z,10.81
2022-09-17T04:21:43.346Z,10.81
2022-09-17T04:24:11.624Z,10.83
2022-09-17T04:26:39.930Z,10.82
2022-09-17T04:29:08.387Z,10.81
2022-09-17T04:31:38.074Z,10.82
2022-09-17T04:34:06.566Z,10.81
2022-09-17T04:36:34.826Z,10.80
2022-09-17T04:39:03.113Z,10.78
2022-09-17T04:41:31.397Z,10.80
2022-09-17T04:43:59.643Z,10.79
2022-09-17T04:46:28.028Z,10.78
2022-09-17T04:48:57.789Z,10.75
2022-09-17T04:51:26.078Z,10.76
2022-09-17T04:53:54.424Z,10.75
2022-09-17T04:56:22.658Z,10.75
2022-09-17T04:58:50.890Z,10.74
2022-09-17T05:01:19.615Z,10.75
2022-09-17T05:03:47.997Z,10.75
2022-09-17T05:06:17.615Z,10.74
2022-09-17T05:08:45.885Z,10.76
2022-09-17T05:11:14.734Z,10.74
2022-09-17T05:13:43.050Z,10.72
2022-09-17T05:16:11.840Z,10.71
2022-09-17T05:18:40.189Z,10.68
2022-09-17T05:21:08.571Z,10.67
2022-09-17T05:23:38.208Z,10.64
2022-09-17T05:26:06.562Z,10.63
2022-09-17T05:28:35.047Z,10.61
2022-09-17T05:31:03.614Z,10.60
2022-09-17T05:33:31.893Z,10.58
2022-09-17T05:36:00.294Z,10.55
2022-09-17T05:38:28.761Z,10.54
2022-09-17T05:40:58.404Z,10.53
2022-09-17T05:43:26.671Z,10.52
2022-09-17T05:45:54.934Z,10.54
2022-09-17T05:48:23.192Z,10.52
2022-09-17T05:50:51.447Z,10.53
2022-09-17T05:53:19.713Z,10.53
2022-09-17T05:55:48.052Z,10.55
2022-09-17T05:58:19.368Z,10.57
2022-09-17T06:00:48.736Z,10.57
2022-09-17T06:03:19.230Z,10.57
2022-09-17T06:05:54.686Z,10.57
2022-09-17T06:08:23.497Z,10.60
2022-09-17T06:10:51.753Z,10.58
2022-09-17T06:13:22.461Z,10.58
2022-09-17T06:15:52.199Z,10.58
2022-09-17T06:18:21.560Z,10.61
2022-09-17T06:20:56.517Z,10.60
2022-09-17T06:23:25.163Z,10.60
2022-09-17T06:25:55.468Z,10.61
2022-09-17T06:28:25.630Z,10.58
2022-09-17T06:30:54.593Z,10.58
2022-09-17T06:33:23.539Z,10.58
2022-09-17T06:35:57.750Z,10.58
2022-09-17T06:38:26.037Z,10.58
2022-09-17T06:40:54.722Z,10.57
2022-09-17T06:43:23.596Z,10.57
2022-09-17T06:45:57.781Z,10.55
2022-09-17T06:48:27.338Z,10.54
2022-09-17T06:50:56.218Z,10.56
2022-09-17T06:53:25.665Z,10.56
2022-09-17T06:55:53.893Z,10.58
2022-09-17T06:58:22.182Z,10.58
2022-09-17T07:00:50.491Z,10.62
2022-09-17T07:03:23.436Z,10.65
2022-09-17T07:05:51.799Z,10.67
2022-09-17T07:08:20.105Z,10.69
2022-09-17T07:10:50.205Z,10.72
2022-09-17T07:13:18.783Z,10.74
2022-09-17T07:15:53.712Z,10.75
2022-09-17T07:18:23.669Z,10.78
2022-09-17T07:20:56.026Z,10.79
2022-09-17T07:23:25.520Z,10.83
2022-09-17T07:25:54.664Z,10.86
2022-09-17T07:28:23.891Z,10.89
2022-09-17T07:30:53.083Z,10.91
2022-09-17T07:33:24.987Z,10.94
2022-09-17T07:35:54.548Z,10.95
2022-09-17T07:38:23.696Z,10.97
2022-09-17T07:40:59.857Z,11.02
2022-09-17T07:43:30.193Z,11.05
2022-09-17T07:45:59.852Z,11.09
2022-09-17T07:48:30.231Z,11.13
2022-09-17T07:50:59.136Z,11.18
2022-09-17T07:53:28.043Z,11.22
2022-09-17T07:55:57.977Z,11.25
2022-09-17T07:58:31.088Z,11.28
2022-09-17T08:01:03.147Z,11.32
2022-09-17T08:03:33.354Z,11.36
2022-09-17T08:06:05.619Z,11.41
2022-09-17T08:08:35.741Z,11.47
2022-09-17T08:11:04.353Z,11.55
2022-09-17T08:13:33.485Z,11.61
2022-09-17T08:16:02.599Z,11.68
2022-09-17T08:18:32.935Z,11.75
2022-09-17T08:21:03.426Z,11.83
2022-09-17T08:23:32.911Z,11.91
2022-09-17T08:26:01.286Z,11.97
2022-09-17T08:28:32.158Z,12.05
2022-09-17T08:31:02.816Z,12.12
2022-09-17T08:33:33.610Z,12.18
2022-09-17T08:36:02.319Z,12.22
2022-09-17T08:38:37.696Z,12.26
2022-09-17T08:41:24.197Z,12.32
2022-09-17T08:44:03.049Z,12.38
2022-09-17T08:46:34.546Z,12.43
2022-09-17T08:49:15.314Z,12.49
2022-09-17T08:51:54.802Z,12.57
2022-09-17T08:54:31.907Z,12.65
2022-09-17T08:57:14.330Z,12.69
2022-09-17T08:59:50.699Z,12.73
2022-09-17T09:02:33.609Z,12.78
2022-09-17T09:05:13.281Z,12.83
2022-09-17T09:07:47.582Z,12.88
2022-09-17T09:10:22.363Z,12.95
2022-09-17T09:12:52.792Z,13.02
2022-09-17T09:15:38.149Z,13.08
2022-09-17T09:18:19.046Z,13.14
2022-09-17T09:20:53.515Z,13.22
2022-09-17T09:23:30.381Z,13.31
2022-09-17T09:26:11.066Z,13.39
2022-09-17T09:29:03.281Z,13.49
2022-09-17T09:31:46.904Z,13.53
2022-09-17T09:34:16.133Z,13.55
2022-09-17T09:36:46.862Z,13.57
2022-09-17T09:39:20.247Z,13.62
2022-09-17T09:41:54.202Z,13.70
2022-09-17T09:44:25.813Z,13.79
2022-09-17T09:47:19.579Z,13.86
2022-09-17T09:50:01.899Z,13.92
2022-09-17T09:52:45.711Z,14.00
2022-09-17T09:55:31.438Z,14.03
2022-09-17T09:58:07.954Z,14.03
2022-09-17T10:00:39.323Z,14.05
2022-09-17T10:03:14.131Z,14.05
2022-09-17T10:05:54.305Z,14.07
2022-09-17T10:08:24.369Z,14.03
2022-09-17T10:10:58.122Z,14.00
2022-09-17T10:13:27.526Z,13.99
2022-09-17T10:15:56.140Z,14.00
2022-09-17T10:18:25.935Z,14.02
2022-09-17T10:20:59.388Z,14.09
2022-09-17T10:23:31.685Z,14.19
2022-09-17T10:26:00.126Z,14.29
2022-09-17T10:28:44.242Z,14.34
2022-09-17T10:31:12.701Z,14.35
2022-09-17T10:33:53.544Z,14.35
2022-09-17T10:36:39.520Z,14.34
2022-09-17T10:39:32.690Z,14.35
2022-09-17T10:42:02.935Z,14.43
2022-09-17T10:44:33.062Z,14.48
2022-09-17T10:47:07.272Z,14.50
2022-09-17T10:49:44.964Z,14.43
2022-09-17T10:52:24.884Z,14.39
2022-09-17T10:55:13.526Z,14.29
2022-09-17T10:58:04.531Z,14.24
2022-09-17T11:00:45.145Z,14.23
2022-09-17T11:03:56.770Z,14.30
2022-09-17T11:06:46.635Z,14.41
2022-09-17T11:09:25.727Z,14.43
2022-09-17T11:12:13.542Z,14.36
2022-09-17T11:14:55.691Z,14.24
2022-09-17T11:17:40.542Z,14.13
2022-09-17T11:20:22.242Z,14.03
2022-09-17T11:23:00.004Z,14.00
2022-09-17T11:25:46.326Z,14.05
2022-09-17T11:28:35.995Z,14.18
2022-09-17T11:31:23.203Z,14.31
2022-09-17T11:34:16.051Z,14.43
2022-09-17T11:36:54.893Z,14.48
2022-09-17T11:39:26.858Z,14.41
2022-09-17T11:41:59.272Z,14.29
2022-09-17T11:44:33.232Z,14.17
2022-09-17T11:47:10.158Z,14.03
2022-09-17T11:49:44.665Z,13.84
2022-09-17T11:52:18.470Z,13.64
2022-09-17T11:54:53.843Z,13.47
2022-09-17T11:57:26.882Z,13.37
2022-09-17T12:00:04.116Z,13.27
2022-09-17T12:02:50.942Z,13.22
2022-09-17T12:05:23.721Z,13.16
2022-09-17T12:07:57.694Z,13.12
2022-09-17T12:10:38.008Z,13.08
2022-09-17T12:13:18.187Z,13.05
2022-09-17T12:15:53.533Z,13.06
2022-09-17T12:18:34.076Z,13.05
2022-09-17T12:21:06.015Z,13.06
2022-09-17T12:23:39.320Z,13.05
2022-09-17T12:26:19.090Z,13.02
2022-09-17T12:28:57.500Z,13.00
2022-09-17T12:31:35.999Z,12.93
2022-09-17T12:34:27.244Z,12.83
2022-09-17T12:37:05.854Z,12.71
2022-09-17T12:39:59.525Z,12.62
2022-09-17T12:42:49.337Z,12.55
2022-09-17T12:45:27.549Z,12.47
2022-09-17T12:48:12.171Z,12.39
2022-09-17T12:50:53.003Z,12.37
2022-09-17T12:53:29.345Z,12.48
2022-09-17T12:56:06.482Z,12.67
2022-09-17T12:58:50.547Z,12.89
2022-09-17T13:01:26.712Z,13.10
2022-09-17T13:04:05.630Z,13.31
2022-09-17T13:07:07.543Z,13.49
2022-09-17T13:10:01.657Z,13.73
2022-09-17T13:12:37.205Z,13.94
2022-09-17T13:15:48.135Z,14.11
2022-09-17T13:18:27.064Z,14.27
2022-09-17T13:21:05.462Z,14.46
2022-09-17T13:23:38.534Z,14.63
2022-09-17T13:26:08.119Z,14.76
2022-09-17T13:28:47.530Z,14.86
2022-09-17T13:31:22.756Z,14.99
2022-09-17T13:33:56.652Z,15.18
2022-09-17T13:36:48.971Z,15.39
2022-09-17T13:39:43.713Z,15.57
2022-09-17T13:42:19.921Z,15.73
2022-09-17T13:44:55.159Z,15.98
2022-09-17T13:47:30.821Z,16.26
2022-09-17T13:50:03.846Z,16.46
2022-09-17T13:52:41.559Z,16.58
2022-09-17T13:55:31.545Z,16.67
2022-09-17T13:58:01.903Z,16.66
2022-09-17T14:00:52.256Z,16.50
2022-09-17T14:03:52.965Z,16.26
2022-09-17T14:06:53.276Z,15.77
2022-09-17T14:09:51.267Z,15.21
2022-09-17T14:12:55.128Z,14.73
2022-09-17T14:15:39.327Z,14.26
2022-09-17T14:18:39.040Z,13.98
2022-09-17T14:21:15.490Z,13.77
2022-09-17T14:23:46.088Z,13.64
2022-09-17T14:26:26.064Z,13.54
2022-09-17T14:29:04.924Z,13.48
2022-09-17T14:31:37.695Z,13.39
2022-09-17T14:34:07.074Z,13.31
2022-09-17T14:36:40.103Z,13.20
2022-09-17T14:39:16.468Z,13.10
2022-09-17T14:41:46.803Z,13.05
2022-09-17T14:44:19.486Z,13.01
2022-09-17T14:46:53.803Z,12.97
2022-09-17T14:49:24.526Z,12.94
2022-09-17T14:51:53.599Z,12.94
2022-09-17T14:54:24.827Z,12.96
2022-09-17T14:57:03.105Z,13.04
2022-09-17T14:59:52.246Z,13.21
2022-09-17T15:02:30.218Z,13.49
2022-09-17T15:04:58.819Z,13.79
2022-09-17T15:07:28.031Z,14.07
2022-09-17T15:10:07.692Z,14.31
2022-09-17T15:12:39.355Z,14.52
2022-09-17T15:15:15.338Z,14.76
2022-09-17T15:17:43.804Z,14.94
2022-09-17T15:20:19.119Z,15.15
2022-09-17T15:22:54.944Z,15.35
2022-09-17T15:25:26.328Z,15.54
2022-09-17T15:27:58.400Z,15.71
2022-09-17T15:30:27.134Z,15.80
2022-09-17T15:32:57.734Z,15.78
2022-09-17T15:35:29.207Z,15.72
2022-09-17T15:40:48.417Z,15.65
2022-09-17T15:43:24.704Z,15.72
2022-09-17T15:45:53.000Z,15.80
2022-09-17T15:48:37.412Z,15.88
2022-09-17T15:51:07.879Z,15.96
2022-09-17T15:53:38.331Z,16.01
2022-09-17T15:56:10.981Z,16.04
2022-09-17T15:58:55.926Z,16.01
2022-09-17T16:01:39.141Z,15.93
2022-09-17T16:04:22.463Z,15.82
2022-09-17T16:06:55.192Z,15.73
2022-09-17T16:09:46.740Z,15.61
2022-09-17T16:12:17.143Z,15.47
2022-09-17T16:14:52.299Z,15.31
2022-09-17T16:17:32.859Z,15.22
2022-09-17T16:20:06.016Z,15.13
2022-09-17T16:22:34.776Z,14.92
2022-09-17T16:25:03.221Z,14.84
2022-09-17T16:27:35.767Z,14.80
2022-09-17T16:30:09.337Z,14.71
2022-09-17T16:32:37.650Z,14.67
2022-09-17T16:35:06.821Z,14.64
2022-09-17T16:37:35.120Z,14.62
2022-09-17T16:40:03.547Z,14.58
2022-09-17T16:42:32.328Z,14.52
2022-09-17T16:45:03.274Z,14.44
2022-09-17T16:47:38.013Z,14.36
2022-09-17T16:50:07.981Z,14.27
2022-09-17T16:52:36.631Z,14.20
2022-09-17T16:55:06.552Z,14.13
2022-09-17T16:57:35.551Z,14.09
2022-09-17T17:00:06.023Z,14.00
2022-09-17T17:02:34.386Z,13.94
2022-09-17T17:05:04.301Z,13.86
2022-09-17T17:07:32.888Z,13.80
2022-09-17T17:10:02.022Z,13.72
2022-09-17T17:12:31.011Z,13.64
2022-09-17T17:14:59.263Z,13.58
2022-09-17T17:17:27.725Z,13.53
2022-09-17T17:19:56.142Z,13.47
2022-09-17T17:22:26.780Z,13.43
2022-09-17T17:24:55.248Z,13.38
2022-09-17T17:27:23.546Z,13.32
2022-09-17T17:29:51.868Z,13.27
2022-09-17T17:32:20.127Z,13.20
2022-09-17T17:34:50.084Z,13.14
2022-09-17T17:37:18.602Z,13.09
2022-09-17T17:39:48.209Z,13.04
2022-09-17T17:42:16.639Z,13.00
2022-09-17T17:44:44.872Z,12.95
2022-09-17T17:47:13.535Z,12.88
2022-09-17T17:49:41.920Z,12.85
2022-09-17T17:52:12.268Z,12.80
2022-09-17T17:54:40.609Z,12.74
2022-09-17T17:57:11.304Z,12.69
2022-09-17T17:59:39.571Z,12.64
2022-09-17T18:02:08.145Z,12.60
2022-09-17T18:04:38.538Z,12.57
2022-09-17T18:07:07.662Z,12.54
2022-09-17T18:09:36.019Z,12.48
2022-09-17T18:12:04.407Z,12.43
2022-09-17T18:14:34.041Z,12.40
2022-09-17T18:17:02.439Z,12.37
2022-09-17T18:19:30.694Z,12.34
2022-09-17T18:21:58.937Z,12.34
2022-09-17T18:24:27.237Z,12.33
2022-09-17T18:26:55.487Z,12.34
2022-09-17T18:29:23.761Z,12.35
2022-09-17T18:31:53.759Z,12.34
2022-09-17T18:34:22.116Z,12.36
2022-09-17T18:36:51.463Z,12.38
2022-09-17T18:39:57.049Z,12.38
2022-09-17T18:42:09.506Z,12.39
2022-09-17T18:44:37.838Z,12.40
2022-09-17T18:47:07.676Z,12.42
2022-09-17T18:49:35.952Z,12.44
2022-09-17T18:52:04.280Z,12.45
2022-09-17T18:54:32.566Z,12.47
2022-09-17T18:57:00.941Z,12.48
2022-09-17T18:59:29.246Z,12.48
2022-09-17T19:01:57.585Z,12.49
2022-09-17T19:04:28.535Z,12.50
2022-09-17T19:06:56.804Z,12.49
2022-09-17T19:09:25.289Z,12.48
2022-09-17T19:11:53.558Z,12.48
2022-09-17T19:14:21.814Z,12.48
2022-09-17T19:16:50.080Z,12.46
2022-09-17T19:19:18.365Z,12.46
2022-09-17T19:21:49.948Z,12.46
2022-09-17T19:24:18.257Z,12.47
2022-09-17T19:26:50.807Z,12.47
2022-09-17T19:29:19.345Z,12.47
2022-09-17T19:31:47.658Z,12.45
2022-09-17T19:34:16.019Z,12.45
2022-09-17T19:36:44.326Z,12.43
2022-09-17T19:39:13.918Z,12.45
2022-09-17T19:41:42.180Z,12.45
2022-09-17T19:44:10.496Z,12.46
2022-09-17T19:46:38.832Z,12.47
2022-09-17T19:49:08.609Z,12.45
2022-09-17T19:51:37.672Z,12.44
2022-09-17T19:54:06.692Z,12.46
2022-09-17T19:56:36.345Z,12.45
2022-09-17T19:59:04.806Z,12.47
2022-09-17T20:01:34.819Z,12.45
2022-09-17T20:04:03.547Z,12.44
2022-09-17T20:06:34.616Z,12.43
2022-09-17T20:09:03.080Z,12.43
2022-09-17T20:11:31.471Z,12.41
2022-09-17T20:14:06.369Z,12.40
2022-09-17T20:16:36.548Z,12.40
2022-09-17T20:19:06.112Z,12.40
2022-09-17T20:21:35.090Z,12.40
2022-09-17T20:24:06.788Z,12.39
2022-09-17T20:26:35.506Z,12.38
2022-09-17T20:29:05.192Z,12.38
2022-09-17T20:31:34.209Z,12.38
2022-09-17T20:34:03.840Z,12.35
2022-09-17T20:36:35.500Z,12.34
2022-09-17T20:39:17.906Z,12.31
2022-09-17T20:41:48.009Z,12.29
2022-09-17T20:44:18.442Z,12.28
2022-09-17T20:46:46.727Z,12.25
2022-09-17T20:49:15.007Z,12.22
2022-09-17T20:51:43.330Z,12.20
2022-09-17T20:54:11.750Z,12.19
2022-09-17T20:56:40.235Z,12.16
2022-09-17T20:59:15.021Z,12.17
2022-09-17T21:01:45.831Z,12.17
2022-09-17T21:04:16.394Z,12.17
2022-09-17T21:06:44.960Z,12.16
2022-09-17T21:09:16.596Z,12.15
2022-09-17T21:11:45.750Z,12.15
2022-09-17T21:14:15.578Z,12.15
2022-09-17T21:16:45.983Z,12.15
2022-09-17T21:19:15.770Z,12.15
2022-09-17T21:21:44.076Z,12.15
2022-09-17T21:24:12.432Z,12.13
2022-09-17T21:26:40.740Z,12.11
2022-09-17T21:29:09.180Z,12.09
2022-09-17T21:31:37.866Z,12.08
2022-09-17T21:34:09.131Z,12.05
2022-09-17T21:36:39.086Z,12.04
2022-09-17T21:39:11.026Z,12.01
2022-09-17T21:41:42.504Z,12.00
2022-09-17T21:44:12.444Z,11.98
2022-09-17T21:46:42.417Z,11.97
2022-09-17T21:49:13.312Z,11.95
2022-09-17T21:51:43.119Z,11.93
2022-09-17T21:54:13.453Z,11.92
2022-09-17T21:56:41.882Z,11.91
2022-09-17T21:59:13.047Z,11.89
2022-09-17T22:01:46.001Z,11.86
2022-09-17T22:04:17.478Z,11.85
2022-09-17T22:06:47.307Z,11.83
2022-09-17T22:09:19.065Z,11.82
2022-09-17T22:11:47.659Z,11.82
2022-09-17T22:14:19.337Z,11.81
2022-09-17T22:16:50.511Z,11.81
2022-09-17T22:19:21.199Z,11.80
2022-09-17T22:21:51.218Z,11.79
2022-09-17T22:24:20.932Z,11.79
2022-09-17T22:26:56.603Z,11.78
2022-09-17T22:29:26.815Z,11.77
2022-09-17T22:31:55.253Z,11.76
2022-09-17T22:34:25.807Z,11.75
2022-09-17T22:36:54.069Z,11.74
2022-09-17T22:39:22.656Z,11.71
2022-09-17T22:41:51.030Z,11.71
2022-09-17T22:44:20.833Z,11.70
2022-09-17T22:46:50.763Z,11.69
2022-09-17T22:49:20.102Z,11.68
2022-09-17T22:51:49.902Z,11.68
2022-09-17T22:54:19.587Z,11.68
2022-09-17T22:56:49.122Z,11.68
2022-09-17T22:59:18.020Z,11.65
2022-09-17T23:01:46.452Z,11.63
2022-09-17T23:04:14.761Z,11.62
2022-09-17T23:06:43.031Z,11.60
2022-09-17T23:09:14.786Z,11.58
2022-09-17T23:11:43.051Z,11.59
2022-09-17T23:14:13.963Z,11.59
2022-09-17T23:16:44.313Z,11.58
2022-09-17T23:19:13.120Z,11.57
2022-09-17T23:21:41.533Z,11.57
2022-09-17T23:24:19.886Z,11.56
2022-09-17T23:26:50.157Z,11.56
2022-09-17T23:29:18.866Z,11.55
2022-09-17T23:31:47.145Z,11.55
2022-09-17T23:34:15.591Z,11.53
2022-09-17T23:36:43.952Z,11.51
2022-09-17T23:39:13.043Z,11.50
2022-09-17T23:41:45.352Z,11.50
2022-09-17T23:44:16.422Z,11.49
2022-09-17T23:46:46.613Z,11.48
2022-09-17T23:49:16.089Z,11.49
2022-09-17T23:51:44.694Z,11.48
2022-09-17T23:54:13.098Z,11.47
2022-09-17T23:56:41.387Z,11.48
2022-09-17T23:59:10.786Z,11.48
